Campeche, México

12:11 AM CDT en Octubre 23, 2014 (GMT -0500)
XE3AHB Radio | Change Station
CLOSE
Current Station
Estación meteorológica personal
Location: Sn Fco de Campeche, Campeche
Altura: 102 ft
Estaciones meteorológicas cercanas

Alt 102 ft 19.83 °N, 90.54 °W | Updated 8 seconds ago

Overcast
Nublado
75.0 ° F
Sensación térmica 73 ° F
N
3.5
Viento Variable Viento desde Oeste
Gusts 4.0 mph

Hoy
Alta -- | Baja -- ° F
--% Posibilidad de precipitaciones
Ayer
Alta -- | Baja -- ° F
Precip. -- pul
6:59 AM 6:32 PM
Creciente menguante, 1% visible
Presión 29.80 pul
Visibilidad 7.0 Millas
Nubes Nubes dispersas 500 ft
Muy nublado 7000 ft
Nublado 12000 ft
Índice de calor 73 ° F
Punto de rocío 74 ° F
Humedad 97%
Precipitaciones 0.00 pul
Espesor de la nieve No disponible.
UV 0 de una escala de 12
Polen No disponible.
Calidad del aire No disponible.
Flu Activity No disponible.
METAR MMCP 230341Z 08005KT 7SM SCT005 BKN070 OVC120 25/25 A2980 RMK 8/77/ OCNL DROPS

More Conditions Fewer Conditions

Presión 29.80 pul
Visibilidad 7.0 Millas
Nubes Nubes dispersas 500 ft
Muy nublado 7000 ft
Nublado 12000 ft
Índice de calor 73 ° F
Punto de rocío 74 ° F
Humedad 97%
Precipitaciones 0.00 pul
Espesor de la nieve No disponible.
UV 0 de una escala de 12
Polen No disponible.
Calidad del aire No disponible.
Flu Activity No disponible.
METAR MMCP 230341Z 08005KT 7SM SCT005 BKN070 OVC120 25/25 A2980 RMK 8/77/ OCNL DROPS

More Conditions Fewer Conditions

10-Day Weather Forecast

Almanac

Astronomía

Oct. 23, 2014 Salida Puesta
Hora real 6:59 AM CDT 6:32 PM CDT
Crepúsculo civil 6:37 AM CDT 6:55 PM CDT
Crepúsculo náutico 6:11 AM CDT 7:21 PM CDT
Crepúsculo astronómico 5:45 AM CDT 7:46 PM CDT
Luna 6:42 AM CDT 6:34 PM CDT
Horas de luz 12h 18m
Horas de luz
11h 33m
Tomorrow will be 1m 2s shorter.
Creciente menguante, 1% of the Moon is Illuminated
Hoy
Creciente menguante
Oct 23
Nueva
Oct 30
Cuarto creciente
Nov 6
Luna llena
Nov 14
Cuarto menguante

Extremos de ayer

Máximos del país Bajas del país

Community

WunderPhotos

Upload Photos

1,764,170 ¡fotos cargadas!

Nearby

Calidad del aire

Not available.

Grosos de nieve

Not available.

Actividad de terremotos

Ciudad Distance Mag. Tiempo y dato
No hay informes recientes de la actividad sísmica.
Magnitud mínima muestra es 2,5.

Temperaturas de aguas costeras

Lugar Temperatura
Sin partes meteorológicos de las estaciones

Estaciones meteorológicas cercanas